sensor_id;sensor_type;location;lat;lon;timestamp;temperature;humidity
9083;DHT22;4577;48.704;9.000;2023-10-08T00:01:04;15.40;66.30
9083;DHT22;4577;48.704;9.000;2023-10-08T00:03:31;15.40;66.90
9083;DHT22;4577;48.704;9.000;2023-10-08T00:06:02;15.40;67.00
9083;DHT22;4577;48.704;9.000;2023-10-08T00:08:32;15.40;67.20
9083;DHT22;4577;48.704;9.000;2023-10-08T00:10:58;15.30;67.40
9083;DHT22;4577;48.704;9.000;2023-10-08T00:13:31;15.30;67.50
9083;DHT22;4577;48.704;9.000;2023-10-08T00:15:57;15.10;67.60
9083;DHT22;4577;48.704;9.000;2023-10-08T00:18:23;15.20;67.20
9083;DHT22;4577;48.704;9.000;2023-10-08T00:20:52;15.20;67.60
9083;DHT22;4577;48.704;9.000;2023-10-08T00:23:22;15.10;67.50
9083;DHT22;4577;48.704;9.000;2023-10-08T00:25:54;15.20;67.40
9083;DHT22;4577;48.704;9.000;2023-10-08T00:28:21;15.10;67.00
9083;DHT22;4577;48.704;9.000;2023-10-08T00:30:46;15.10;67.00
9083;DHT22;4577;48.704;9.000;2023-10-08T00:33:13;15.10;67.10
9083;DHT22;4577;48.704;9.000;2023-10-08T00:35:41;15.10;67.20
9083;DHT22;4577;48.704;9.000;2023-10-08T00:38:11;14.90;67.20
9083;DHT22;4577;48.704;9.000;2023-10-08T00:40:46;14.90;67.00
9083;DHT22;4577;48.704;9.000;2023-10-08T00:43:30;15.00;67.00
9083;DHT22;4577;48.704;9.000;2023-10-08T00:46:03;15.00;67.20
9083;DHT22;4577;48.704;9.000;2023-10-08T00:48:52;15.00;67.40
9083;DHT22;4577;48.704;9.000;2023-10-08T00:51:25;15.00;67.30
9083;DHT22;4577;48.704;9.000;2023-10-08T00:53:56;15.00;67.40
9083;DHT22;4577;48.704;9.000;2023-10-08T00:56:29;15.00;67.50
9083;DHT22;4577;48.704;9.000;2023-10-08T00:59:13;15.00;67.40
9083;DHT22;4577;48.704;9.000;2023-10-08T01:01:45;15.00;67.90
9083;DHT22;4577;48.704;9.000;2023-10-08T01:04:21;14.90;67.70
9083;DHT22;4577;48.704;9.000;2023-10-08T01:06:56;15.00;68.50
9083;DHT22;4577;48.704;9.000;2023-10-08T01:09:26;14.80;69.00
9083;DHT22;4577;48.704;9.000;2023-10-08T01:12:30;14.80;68.60
9083;DHT22;4577;48.704;9.000;2023-10-08T01:14:58;14.80;69.10
9083;DHT22;4577;48.704;9.000;2023-10-08T01:17:32;14.80;68.70
9083;DHT22;4577;48.704;9.000;2023-10-08T01:20:08;14.80;68.50
9083;DHT22;4577;48.704;9.000;2023-10-08T01:22:56;14.90;68.70
9083;DHT22;4577;48.704;9.000;2023-10-08T01:25:23;14.90;69.10
9083;DHT22;4577;48.704;9.000;2023-10-08T01:27:56;14.80;69.10
9083;DHT22;4577;48.704;9.000;2023-10-08T01:30:21;14.80;69.90
9083;DHT22;4577;48.704;9.000;2023-10-08T01:32:47;14.70;69.10
9083;DHT22;4577;48.704;9.000;2023-10-08T01:35:13;14.70;66.60
9083;DHT22;4577;48.704;9.000;2023-10-08T01:37:57;14.70;67.40
9083;DHT22;4577;48.704;9.000;2023-10-08T01:40:25;14.70;67.70
9083;DHT22;4577;48.704;9.000;2023-10-08T01:42:51;14.70;68.00
9083;DHT22;4577;48.704;9.000;2023-10-08T01:45:17;14.70;67.80
9083;DHT22;4577;48.704;9.000;2023-10-08T01:47:50;14.70;68.00
9083;DHT22;4577;48.704;9.000;2023-10-08T01:50:17;14.70;68.40
9083;DHT22;4577;48.704;9.000;2023-10-08T01:52:55;14.70;68.90
9083;DHT22;4577;48.704;9.000;2023-10-08T01:55:21;14.70;69.30
9083;DHT22;4577;48.704;9.000;2023-10-08T01:57:49;14.70;69.60
9083;DHT22;4577;48.704;9.000;2023-10-08T02:00:17;14.70;69.60
9083;DHT22;4577;48.704;9.000;2023-10-08T02:02:51;14.70;69.90
9083;DHT22;4577;48.704;9.000;2023-10-08T02:05:17;14.70;70.10
9083;DHT22;4577;48.704;9.000;2023-10-08T02:07:47;14.60;70.50
9083;DHT22;4577;48.704;9.000;2023-10-08T02:10:13;14.60;70.40
9083;DHT22;4577;48.704;9.000;2023-10-08T02:12:41;14.60;70.60
9083;DHT22;4577;48.704;9.000;2023-10-08T02:15:08;14.50;70.70
9083;DHT22;4577;48.704;9.000;2023-10-08T02:17:34;14.50;71.10
9083;DHT22;4577;48.704;9.000;2023-10-08T02:20:00;14.50;70.80
9083;DHT22;4577;48.704;9.000;2023-10-08T02:22:30;14.40;71.00
9083;DHT22;4577;48.704;9.000;2023-10-08T02:24:56;14.30;71.60
9083;DHT22;4577;48.704;9.000;2023-10-08T02:27:27;14.20;71.10
9083;DHT22;4577;48.704;9.000;2023-10-08T02:29:53;14.20;71.20
9083;DHT22;4577;48.704;9.000;2023-10-08T02:32:20;14.20;71.50
9083;DHT22;4577;48.704;9.000;2023-10-08T02:34:48;14.00;71.40
9083;DHT22;4577;48.704;9.000;2023-10-08T02:37:14;14.20;72.20
9083;DHT22;4577;48.704;9.000;2023-10-08T02:39:40;14.10;71.70
9083;DHT22;4577;48.704;9.000;2023-10-08T02:42:06;14.10;71.70
9083;DHT22;4577;48.704;9.000;2023-10-08T02:44:36;14.10;71.80
9083;DHT22;4577;48.704;9.000;2023-10-08T02:47:08;14.10;71.70
9083;DHT22;4577;48.704;9.000;2023-10-08T02:49:34;14.10;71.60
9083;DHT22;4577;48.704;9.000;2023-10-08T02:52:02;14.10;71.50
9083;DHT22;4577;48.704;9.000;2023-10-08T02:54:29;13.90;71.20
9083;DHT22;4577;48.704;9.000;2023-10-08T02:57:01;14.00;71.50
9083;DHT22;4577;48.704;9.000;2023-10-08T02:59:36;13.90;71.40
9083;DHT22;4577;48.704;9.000;2023-10-08T03:02:11;13.80;71.50
9083;DHT22;4577;48.704;9.000;2023-10-08T03:04:44;13.90;71.50
9083;DHT22;4577;48.704;9.000;2023-10-08T03:07:14;13.80;71.50
9083;DHT22;4577;48.704;9.000;2023-10-08T03:09:57;13.70;72.00
9083;DHT22;4577;48.704;9.000;2023-10-08T03:12:29;13.70;71.90
9083;DHT22;4577;48.704;9.000;2023-10-08T03:14:59;13.80;72.00
9083;DHT22;4577;48.704;9.000;2023-10-08T03:17:38;13.80;72.10
9083;DHT22;4577;48.704;9.000;2023-10-08T03:20:05;13.90;72.00
9083;DHT22;4577;48.704;9.000;2023-10-08T03:22:51;13.80;71.90
9083;DHT22;4577;48.704;9.000;2023-10-08T03:25:16;13.70;71.40
9083;DHT22;4577;48.704;9.000;2023-10-08T03:27:43;13.70;71.30
9083;DHT22;4577;48.704;9.000;2023-10-08T03:30:09;13.90;71.60
9083;DHT22;4577;48.704;9.000;2023-10-08T03:32:43;13.60;72.00
9083;DHT22;4577;48.704;9.000;2023-10-08T03:35:16;13.90;72.50
9083;DHT22;4577;48.704;9.000;2023-10-08T03:37:48;13.40;72.10
9083;DHT22;4577;48.704;9.000;2023-10-08T03:40:16;13.50;72.00
9083;DHT22;4577;48.704;9.000;2023-10-08T03:42:57;13.70;72.60
9083;DHT22;4577;48.704;9.000;2023-10-08T03:45:23;13.60;72.30
9083;DHT22;4577;48.704;9.000;2023-10-08T03:48:07;13.50;71.50
9083;DHT22;4577;48.704;9.000;2023-10-08T03:50:36;13.50;71.70
9083;DHT22;4577;48.704;9.000;2023-10-08T03:53:09;13.50;72.60
9083;DHT22;4577;48.704;9.000;2023-10-08T03:55:38;13.60;72.60
9083;DHT22;4577;48.704;9.000;2023-10-08T03:58:08;13.40;72.80
9083;DHT22;4577;48.704;9.000;2023-10-08T04:00:53;13.50;72.60
9083;DHT22;4577;48.704;9.000;2023-10-08T04:03:34;13.10;72.50
9083;DHT22;4577;48.704;9.000;2023-10-08T04:06:20;12.80;71.90
9083;DHT22;4577;48.704;9.000;2023-10-08T04:08:54;13.30;72.20
9083;DHT22;4577;48.704;9.000;2023-10-08T04:11:36;13.00;72.40
9083;DHT22;4577;48.704;9.000;2023-10-08T04:14:09;13.00;74.00
9083;DHT22;4577;48.704;9.000;2023-10-08T04:16:34;12.90;72.90
9083;DHT22;4577;48.704;9.000;2023-10-08T04:19:06;13.00;73.30
9083;DHT22;4577;48.704;9.000;2023-10-08T04:24:02;13.10;73.30
9083;DHT22;4577;48.704;9.000;2023-10-08T04:26:31;13.20;73.30
9083;DHT22;4577;48.704;9.000;2023-10-08T04:28:59;13.20;73.10
9083;DHT22;4577;48.704;9.000;2023-10-08T04:31:28;13.20;72.80
9083;DHT22;4577;48.704;9.000;2023-10-08T04:34:05;13.10;72.70
9083;DHT22;4577;48.704;9.000;2023-10-08T04:36:36;12.90;72.70
9083;DHT22;4577;48.704;9.000;2023-10-08T04:39:04;13.10;73.50
9083;DHT22;4577;48.704;9.000;2023-10-08T04:41:43;13.10;73.30
9083;DHT22;4577;48.704;9.000;2023-10-08T04:44:09;12.90;73.20
9083;DHT22;4577;48.704;9.000;2023-10-08T04:46:42;13.30;73.60
9083;DHT22;4577;48.704;9.000;2023-10-08T04:49:11;12.70;73.40
9083;DHT22;4577;48.704;9.000;2023-10-08T04:51:56;12.80;74.40
9083;DHT22;4577;48.704;9.000;2023-10-08T04:54:28;12.80;74.40
9083;DHT22;4577;48.704;9.000;2023-10-08T04:57:00;12.80;73.40
9083;DHT22;4577;48.704;9.000;2023-10-08T04:59:29;12.90;73.30
9083;DHT22;4577;48.704;9.000;2023-10-08T05:02:03;13.00;74.40
9083;DHT22;4577;48.704;9.000;2023-10-08T05:05:00;12.70;74.30
9083;DHT22;4577;48.704;9.000;2023-10-08T05:12:56;12.50;74.70
9083;DHT22;4577;48.704;9.000;2023-10-08T05:15:33;12.80;74.00
9083;DHT22;4577;48.704;9.000;2023-10-08T05:18:03;12.90;74.20
9083;DHT22;4577;48.704;9.000;2023-10-08T05:20:44;12.80;74.50
9083;DHT22;4577;48.704;9.000;2023-10-08T05:23:18;13.00;74.10
9083;DHT22;4577;48.704;9.000;2023-10-08T05:25:51;12.90;74.20
9083;DHT22;4577;48.704;9.000;2023-10-08T05:28:33;13.20;74.20
9083;DHT22;4577;48.704;9.000;2023-10-08T05:31:13;12.90;74.00
9083;DHT22;4577;48.704;9.000;2023-10-08T05:33:39;12.70;75.00
9083;DHT22;4577;48.704;9.000;2023-10-08T05:36:23;13.30;76.20
9083;DHT22;4577;48.704;9.000;2023-10-08T05:39:16;12.70;75.40
9083;DHT22;4577;48.704;9.000;2023-10-08T05:41:56;12.90;75.80
9083;DHT22;4577;48.704;9.000;2023-10-08T05:44:41;12.80;74.80
9083;DHT22;4577;48.704;9.000;2023-10-08T05:47:13;12.80;75.80
9083;DHT22;4577;48.704;9.000;2023-10-08T05:49:59;13.00;77.10
9083;DHT22;4577;48.704;9.000;2023-10-08T05:52:43;12.70;76.90
9083;DHT22;4577;48.704;9.000;2023-10-08T05:55:31;12.60;77.60
9083;DHT22;4577;48.704;9.000;2023-10-08T05:58:06;12.80;78.20
9083;DHT22;4577;48.704;9.000;2023-10-08T06:00:46;12.60;76.30
9083;DHT22;4577;48.704;9.000;2023-10-08T06:03:31;12.60;76.70
9083;DHT22;4577;48.704;9.000;2023-10-08T06:06:06;13.40;77.40
9083;DHT22;4577;48.704;9.000;2023-10-08T06:08:38;12.80;76.80
9083;DHT22;4577;48.704;9.000;2023-10-08T06:11:23;13.00;77.10
9083;DHT22;4577;48.704;9.000;2023-10-08T06:14:07;12.80;76.20
9083;DHT22;4577;48.704;9.000;2023-10-08T06:16:53;12.90;75.90
9083;DHT22;4577;48.704;9.000;2023-10-08T06:22:04;12.80;77.20
9083;DHT22;4577;48.704;9.000;2023-10-08T06:24:30;12.70;76.60
9083;DHT22;4577;48.704;9.000;2023-10-08T06:31:57;12.90;77.10
9083;DHT22;4577;48.704;9.000;2023-10-08T06:34:28;12.90;77.00
9083;DHT22;4577;48.704;9.000;2023-10-08T06:36:58;12.90;77.30
9083;DHT22;4577;48.704;9.000;2023-10-08T06:39:24;12.90;77.10
9083;DHT22;4577;48.704;9.000;2023-10-08T06:47:08;12.90;76.90
9083;DHT22;4577;48.704;9.000;2023-10-08T06:49:35;13.00;76.20
9083;DHT22;4577;48.704;9.000;2023-10-08T06:52:01;12.90;76.50
9083;DHT22;4577;48.704;9.000;2023-10-08T06:54:27;13.00;76.90
9083;DHT22;4577;48.704;9.000;2023-10-08T06:56:56;12.30;76.20
9083;DHT22;4577;48.704;9.000;2023-10-08T06:59:22;12.60;76.30
9083;DHT22;4577;48.704;9.000;2023-10-08T07:04:17;12.90;78.10
9083;DHT22;4577;48.704;9.000;2023-10-08T07:06:45;12.90;77.80
9083;DHT22;4577;48.704;9.000;2023-10-08T07:09:12;13.10;78.30
9083;DHT22;4577;48.704;9.000;2023-10-08T07:11:54;13.10;78.20
9083;DHT22;4577;48.704;9.000;2023-10-08T07:14:27;13.00;77.20
9083;DHT22;4577;48.704;9.000;2023-10-08T07:16:54;13.10;77.10
9083;DHT22;4577;48.704;9.000;2023-10-08T07:19:21;13.20;76.80
9083;DHT22;4577;48.704;9.000;2023-10-08T07:26:48;13.60;70.40
9083;DHT22;4577;48.704;9.000;2023-10-08T07:29:15;13.70;70.50
9083;DHT22;4577;48.704;9.000;2023-10-08T07:31:46;13.90;70.20
9083;DHT22;4577;48.704;9.000;2023-10-08T07:34:15;14.00;70.50
9083;DHT22;4577;48.704;9.000;2023-10-08T07:36:46;14.10;70.50
9083;DHT22;4577;48.704;9.000;2023-10-08T07:39:18;13.90;68.60
9083;DHT22;4577;48.704;9.000;2023-10-08T07:41:53;14.30;68.40
9083;DHT22;4577;48.704;9.000;2023-10-08T07:44:23;14.50;69.30
9083;DHT22;4577;48.704;9.000;2023-10-08T07:46:50;14.60;69.50
9083;DHT22;4577;48.704;9.000;2023-10-08T07:49:17;14.50;69.90
9083;DHT22;4577;48.704;9.000;2023-10-08T07:54:20;14.80;69.50
9083;DHT22;4577;48.704;9.000;2023-10-08T07:59:14;15.10;68.70
9083;DHT22;4577;48.704;9.000;2023-10-08T08:01:44;15.10;68.20
9083;DHT22;4577;48.704;9.000;2023-10-08T08:04:11;15.10;68.00
9083;DHT22;4577;48.704;9.000;2023-10-08T08:06:47;15.20;68.80
9083;DHT22;4577;48.704;9.000;2023-10-08T08:09:18;15.20;68.40
9083;DHT22;4577;48.704;9.000;2023-10-08T08:11:48;15.20;68.60
9083;DHT22;4577;48.704;9.000;2023-10-08T08:14:15;15.20;68.30
9083;DHT22;4577;48.704;9.000;2023-10-08T08:19:16;15.40;68.90
9083;DHT22;4577;48.704;9.000;2023-10-08T08:21:46;15.40;69.00
9083;DHT22;4577;48.704;9.000;2023-10-08T08:24:12;15.50;69.30
9083;DHT22;4577;48.704;9.000;2023-10-08T08:31:40;15.60;69.40
9083;DHT22;4577;48.704;9.000;2023-10-08T08:34:11;15.70;69.20
9083;DHT22;4577;48.704;9.000;2023-10-08T08:36:44;15.70;68.70
9083;DHT22;4577;48.704;9.000;2023-10-08T08:39:12;15.90;68.30
9083;DHT22;4577;48.704;9.000;2023-10-08T08:41:50;16.00;68.50
9083;DHT22;4577;48.704;9.000;2023-10-08T08:44:20;16.10;68.00
9083;DHT22;4577;48.704;9.000;2023-10-08T08:46:46;16.30;67.80
9083;DHT22;4577;48.704;9.000;2023-10-08T08:49:13;16.20;68.50
9083;DHT22;4577;48.704;9.000;2023-10-08T08:51:39;16.50;68.90
9083;DHT22;4577;48.704;9.000;2023-10-08T08:54:06;15.70;68.00
9083;DHT22;4577;48.704;9.000;2023-10-08T08:56:37;16.20;68.60
9083;DHT22;4577;48.704;9.000;2023-10-08T08:59:07;16.40;68.60
9083;DHT22;4577;48.704;9.000;2023-10-08T09:01:38;16.50;69.00
9083;DHT22;4577;48.704;9.000;2023-10-08T09:04:04;16.60;68.90
9083;DHT22;4577;48.704;9.000;2023-10-08T09:06:37;16.70;68.80
9083;DHT22;4577;48.704;9.000;2023-10-08T09:09:07;16.70;68.70
9083;DHT22;4577;48.704;9.000;2023-10-08T09:11:49;16.80;68.80
9083;DHT22;4577;48.704;9.000;2023-10-08T09:14:24;16.90;68.50
9083;DHT22;4577;48.704;9.000;2023-10-08T09:16:58;16.90;68.30
9083;DHT22;4577;48.704;9.000;2023-10-08T09:22:05;16.90;68.70
9083;DHT22;4577;48.704;9.000;2023-10-08T09:24:35;16.80;69.50
9083;DHT22;4577;48.704;9.000;2023-10-08T09:27:05;16.90;69.40
9083;DHT22;4577;48.704;9.000;2023-10-08T09:31:58;16.90;71.10
9083;DHT22;4577;48.704;9.000;2023-10-08T09:34:30;17.10;71.30
9083;DHT22;4577;48.704;9.000;2023-10-08T09:36:57;17.20;71.80
9083;DHT22;4577;48.704;9.000;2023-10-08T09:39:25;17.60;71.70
9083;DHT22;4577;48.704;9.000;2023-10-08T09:41:57;17.50;71.00
9083;DHT22;4577;48.704;9.000;2023-10-08T09:44:24;17.60;71.40
9083;DHT22;4577;48.704;9.000;2023-10-08T09:46:59;17.60;71.00
9083;DHT22;4577;48.704;9.000;2023-10-08T09:49:46;17.60;70.60
9083;DHT22;4577;48.704;9.000;2023-10-08T09:52:16;17.50;70.70
9083;DHT22;4577;48.704;9.000;2023-10-08T09:57:10;17.60;67.10
9083;DHT22;4577;48.704;9.000;2023-10-08T09:59:37;18.00;66.90
9083;DHT22;4577;48.704;9.000;2023-10-08T10:02:06;18.10;66.50
9083;DHT22;4577;48.704;9.000;2023-10-08T10:07:10;18.70;68.60
9083;DHT22;4577;48.704;9.000;2023-10-08T10:09:38;18.00;67.70
9083;DHT22;4577;48.704;9.000;2023-10-08T10:12:05;18.20;67.70
9083;DHT22;4577;48.704;9.000;2023-10-08T10:14:42;18.30;67.80
9083;DHT22;4577;48.704;9.000;2023-10-08T10:17:21;18.40;67.30
9083;DHT22;4577;48.704;9.000;2023-10-08T10:20:06;18.30;67.40
9083;DHT22;4577;48.704;9.000;2023-10-08T10:22:36;18.50;67.00
9083;DHT22;4577;48.704;9.000;2023-10-08T10:25:02;18.40;66.60
9083;DHT22;4577;48.704;9.000;2023-10-08T10:27:42;18.50;66.00
9083;DHT22;4577;48.704;9.000;2023-10-08T10:30:08;18.70;65.70
9083;DHT22;4577;48.704;9.000;2023-10-08T10:32:35;18.50;66.00
9083;DHT22;4577;48.704;9.000;2023-10-08T10:35:01;18.20;66.50
9083;DHT22;4577;48.704;9.000;2023-10-08T10:37:32;18.90;66.10
9083;DHT22;4577;48.704;9.000;2023-10-08T10:40:08;18.60;65.70
9083;DHT22;4577;48.704;9.000;2023-10-08T10:42:39;18.70;66.30
9083;DHT22;4577;48.704;9.000;2023-10-08T10:45:14;18.60;65.10
9083;DHT22;4577;48.704;9.000;2023-10-08T10:50:41;19.40;63.60
9083;DHT22;4577;48.704;9.000;2023-10-08T10:53:37;19.60;63.00
9083;DHT22;4577;48.704;9.000;2023-10-08T10:56:22;19.30;63.50
9083;DHT22;4577;48.704;9.000;2023-10-08T10:58:59;19.20;63.70
9083;DHT22;4577;48.704;9.000;2023-10-08T11:01:28;19.30;63.90
9083;DHT22;4577;48.704;9.000;2023-10-08T11:04:10;19.40;64.20
9083;DHT22;4577;48.704;9.000;2023-10-08T11:06:43;20.00;62.60
9083;DHT22;4577;48.704;9.000;2023-10-08T11:09:10;20.10;61.50
9083;DHT22;4577;48.704;9.000;2023-10-08T11:11:48;20.60;61.80
9083;DHT22;4577;48.704;9.000;2023-10-08T11:16:47;19.60;61.80
9083;DHT22;4577;48.704;9.000;2023-10-08T11:19:14;20.10;64.00
9083;DHT22;4577;48.704;9.000;2023-10-08T11:21:53;19.90;64.80
9083;DHT22;4577;48.704;9.000;2023-10-08T11:24:29;20.00;63.80
9083;DHT22;4577;48.704;9.000;2023-10-08T11:29:49;20.60;62.10
9083;DHT22;4577;48.704;9.000;2023-10-08T11:32:26;20.40;62.00
9083;DHT22;4577;48.704;9.000;2023-10-08T11:34:59;20.20;61.90
9083;DHT22;4577;48.704;9.000;2023-10-08T11:37:30;20.00;62.70
9083;DHT22;4577;48.704;9.000;2023-10-08T11:39:59;20.00;61.60
9083;DHT22;4577;48.704;9.000;2023-10-08T11:42:25;20.70;62.50
9083;DHT22;4577;48.704;9.000;2023-10-08T11:45:07;20.90;60.40
9083;DHT22;4577;48.704;9.000;2023-10-08T11:50:25;21.20;58.90
9083;DHT22;4577;48.704;9.000;2023-10-08T11:53:00;21.40;59.90
9083;DHT22;4577;48.704;9.000;2023-10-08T11:55:33;21.30;58.00
9083;DHT22;4577;48.704;9.000;2023-10-08T11:58:06;21.40;57.60
9083;DHT22;4577;48.704;9.000;2023-10-08T12:00:43;21.30;58.60
9083;DHT22;4577;48.704;9.000;2023-10-08T12:03:12;21.30;57.60
9083;DHT22;4577;48.704;9.000;2023-10-08T12:05:38;21.10;57.10
9083;DHT22;4577;48.704;9.000;2023-10-08T12:13:06;21.40;57.50
9083;DHT22;4577;48.704;9.000;2023-10-08T12:15:32;20.90;55.50
9083;DHT22;4577;48.704;9.000;2023-10-08T12:18:04;21.50;55.40
9083;DHT22;4577;48.704;9.000;2023-10-08T12:23:14;21.60;54.90
9083;DHT22;4577;48.704;9.000;2023-10-08T12:25:54;21.90;54.10
9083;DHT22;4577;48.704;9.000;2023-10-08T12:28:24;21.80;53.80
9083;DHT22;4577;48.704;9.000;2023-10-08T12:30:51;22.00;53.20
9083;DHT22;4577;48.704;9.000;2023-10-08T12:33:22;22.00;55.00
9083;DHT22;4577;48.704;9.000;2023-10-08T12:35:50;21.70;55.40
9083;DHT22;4577;48.704;9.000;2023-10-08T12:38:19;20.80;55.30
9083;DHT22;4577;48.704;9.000;2023-10-08T12:40:48;21.00;56.30
9083;DHT22;4577;48.704;9.000;2023-10-08T12:43:19;20.80;57.20
9083;DHT22;4577;48.704;9.000;2023-10-08T12:45:49;21.20;56.10
9083;DHT22;4577;48.704;9.000;2023-10-08T12:48:23;21.30;55.60
9083;DHT22;4577;48.704;9.000;2023-10-08T12:50:50;21.00;56.40
9083;DHT22;4577;48.704;9.000;2023-10-08T12:53:27;20.80;57.10
9083;DHT22;4577;48.704;9.000;2023-10-08T12:56:06;21.70;53.40
9083;DHT22;4577;48.704;9.000;2023-10-08T12:58:36;22.20;52.40
9083;DHT22;4577;48.704;9.000;2023-10-08T13:01:13;22.30;52.40
9083;DHT22;4577;48.704;9.000;2023-10-08T13:03:40;21.90;53.30
9083;DHT22;4577;48.704;9.000;2023-10-08T13:06:13;21.90;53.10
9083;DHT22;4577;48.704;9.000;2023-10-08T13:08:59;22.30;53.20
9083;DHT22;4577;48.704;9.000;2023-10-08T13:11:27;22.20;53.30
9083;DHT22;4577;48.704;9.000;2023-10-08T13:13:56;22.30;53.00
9083;DHT22;4577;48.704;9.000;2023-10-08T13:16:26;22.50;48.50
9083;DHT22;4577;48.704;9.000;2023-10-08T13:21:24;23.30;47.90
9083;DHT22;4577;48.704;9.000;2023-10-08T13:23:53;22.80;48.00
9083;DHT22;4577;48.704;9.000;2023-10-08T13:26:19;22.60;46.80
9083;DHT22;4577;48.704;9.000;2023-10-08T13:33:42;23.80;44.30
9083;DHT22;4577;48.704;9.000;2023-10-08T13:41:06;23.60;44.90
9083;DHT22;4577;48.704;9.000;2023-10-08T13:43:45;23.30;44.10
9083;DHT22;4577;48.704;9.000;2023-10-08T13:46:12;23.40;44.30
9083;DHT22;4577;48.704;9.000;2023-10-08T13:48:40;23.60;43.40
9083;DHT22;4577;48.704;9.000;2023-10-08T13:51:07;23.50;43.40
9083;DHT22;4577;48.704;9.000;2023-10-08T13:53:39;23.40;43.50
9083;DHT22;4577;48.704;9.000;2023-10-08T13:58:31;23.40;43.30
9083;DHT22;4577;48.704;9.000;2023-10-08T14:01:01;23.60;43.50
9083;DHT22;4577;48.704;9.000;2023-10-08T14:03:30;23.70;43.40
9083;DHT22;4577;48.704;9.000;2023-10-08T14:05:59;23.70;43.50
9083;DHT22;4577;48.704;9.000;2023-10-08T14:08:29;24.30;43.40
9083;DHT22;4577;48.704;9.000;2023-10-08T14:10:56;24.20;42.70
9083;DHT22;4577;48.704;9.000;2023-10-08T14:13:31;24.00;43.30
9083;DHT22;4577;48.704;9.000;2023-10-08T14:16:04;23.90;43.30
9083;DHT22;4577;48.704;9.000;2023-10-08T14:18:37;23.90;43.60
9083;DHT22;4577;48.704;9.000;2023-10-08T14:23:43;23.60;43.20
9083;DHT22;4577;48.704;9.000;2023-10-08T14:26:10;23.40;43.30
9083;DHT22;4577;48.704;9.000;2023-10-08T14:33:49;23.70;44.50
9083;DHT22;4577;48.704;9.000;2023-10-08T14:36:24;23.70;43.70
9083;DHT22;4577;48.704;9.000;2023-10-08T14:39:09;24.10;43.80
9083;DHT22;4577;48.704;9.000;2023-10-08T14:41:53;23.80;43.80
9083;DHT22;4577;48.704;9.000;2023-10-08T14:47:06;23.70;45.30
9083;DHT22;4577;48.704;9.000;2023-10-08T14:49:33;23.50;45.00
9083;DHT22;4577;48.704;9.000;2023-10-08T14:51:59;23.20;45.70
9083;DHT22;4577;48.704;9.000;2023-10-08T14:54:25;23.10;46.80
9083;DHT22;4577;48.704;9.000;2023-10-08T14:56:52;22.60;47.10
9083;DHT22;4577;48.704;9.000;2023-10-08T15:01:44;22.90;47.30
9083;DHT22;4577;48.704;9.000;2023-10-08T15:06:38;22.70;48.00
9083;DHT22;4577;48.704;9.000;2023-10-08T15:09:05;22.50;47.20
9083;DHT22;4577;48.704;9.000;2023-10-08T15:13:57;22.50;47.20
9083;DHT22;4577;48.704;9.000;2023-10-08T15:16:23;22.60;47.70
9083;DHT22;4577;48.704;9.000;2023-10-08T15:18:52;22.50;48.80
9083;DHT22;4577;48.704;9.000;2023-10-08T15:21:19;22.00;49.10
9083;DHT22;4577;48.704;9.000;2023-10-08T15:23:45;22.30;49.90
9083;DHT22;4577;48.704;9.000;2023-10-08T15:26:11;22.30;49.60
9083;DHT22;4577;48.704;9.000;2023-10-08T15:28:38;22.20;50.30
9083;DHT22;4577;48.704;9.000;2023-10-08T15:31:05;22.40;50.70
9083;DHT22;4577;48.704;9.000;2023-10-08T15:33:30;22.10;50.80
9083;DHT22;4577;48.704;9.000;2023-10-08T15:43:17;22.30;52.00
9083;DHT22;4577;48.704;9.000;2023-10-08T15:45:44;22.10;53.40
9083;DHT22;4577;48.704;9.000;2023-10-08T15:48:10;22.00;53.50
9083;DHT22;4577;48.704;9.000;2023-10-08T15:50:36;21.90;52.70
9083;DHT22;4577;48.704;9.000;2023-10-08T15:55:29;22.10;54.00
9083;DHT22;4577;48.704;9.000;2023-10-08T15:57:54;21.80;52.80
9083;DHT22;4577;48.704;9.000;2023-10-08T16:02:46;21.80;55.10
9083;DHT22;4577;48.704;9.000;2023-10-08T16:05:13;22.00;54.00
9083;DHT22;4577;48.704;9.000;2023-10-08T16:10:06;21.90;54.10
9083;DHT22;4577;48.704;9.000;2023-10-08T16:12:32;21.60;54.60
9083;DHT22;4577;48.704;9.000;2023-10-08T16:17:24;21.80;56.40
9083;DHT22;4577;48.704;9.000;2023-10-08T16:24:43;21.50;56.50
9083;DHT22;4577;48.704;9.000;2023-10-08T16:29:34;21.60;56.10
9083;DHT22;4577;48.704;9.000;2023-10-08T16:32:02;21.60;55.80
9083;DHT22;4577;48.704;9.000;2023-10-08T16:36:55;21.50;54.70
9083;DHT22;4577;48.704;9.000;2023-10-08T16:39:21;21.40;54.40
9083;DHT22;4577;48.704;9.000;2023-10-08T16:41:50;21.80;54.80
9083;DHT22;4577;48.704;9.000;2023-10-08T16:44:17;21.30;55.70
9083;DHT22;4577;48.704;9.000;2023-10-08T16:46:42;21.30;56.50
9083;DHT22;4577;48.704;9.000;2023-10-08T16:49:10;20.70;57.70
9083;DHT22;4577;48.704;9.000;2023-10-08T16:51:39;21.20;58.30
9083;DHT22;4577;48.704;9.000;2023-10-08T16:54:06;21.20;57.80
9083;DHT22;4577;48.704;9.000;2023-10-08T16:56:39;21.10;58.50
9083;DHT22;4577;48.704;9.000;2023-10-08T17:01:32;21.10;58.80
9083;DHT22;4577;48.704;9.000;2023-10-08T17:03:58;21.00;58.90
9083;DHT22;4577;48.704;9.000;2023-10-08T17:06:24;21.20;59.70
9083;DHT22;4577;48.704;9.000;2023-10-08T17:11:16;20.60;60.50
9083;DHT22;4577;48.704;9.000;2023-10-08T17:16:08;20.60;59.50
9083;DHT22;4577;48.704;9.000;2023-10-08T17:18:37;20.70;60.80
9083;DHT22;4577;48.704;9.000;2023-10-08T17:23:29;20.40;62.80
9083;DHT22;4577;48.704;9.000;2023-10-08T17:25:55;20.60;62.60
9083;DHT22;4577;48.704;9.000;2023-10-08T17:30:49;20.40;61.50
9083;DHT22;4577;48.704;9.000;2023-10-08T17:35:41;20.20;64.90
9083;DHT22;4577;48.704;9.000;2023-10-08T17:38:08;20.10;64.90
9083;DHT22;4577;48.704;9.000;2023-10-08T17:40:37;19.90;65.50
9083;DHT22;4577;48.704;9.000;2023-10-08T17:43:05;20.00;65.40
9083;DHT22;4577;48.704;9.000;2023-10-08T17:45:33;19.70;67.20
9083;DHT22;4577;48.704;9.000;2023-10-08T17:48:01;19.90;66.70
9083;DHT22;4577;48.704;9.000;2023-10-08T17:50:28;20.00;65.80
9083;DHT22;4577;48.704;9.000;2023-10-08T17:52:56;20.00;65.60
9083;DHT22;4577;48.704;9.000;2023-10-08T17:55:21;19.90;66.10
9083;DHT22;4577;48.704;9.000;2023-10-08T17:57:48;19.80;67.20
9083;DHT22;4577;48.704;9.000;2023-10-08T18:00:15;19.60;67.50
9083;DHT22;4577;48.704;9.000;2023-10-08T18:02:47;19.20;68.50
9083;DHT22;4577;48.704;9.000;2023-10-08T18:05:16;19.40;69.30
9083;DHT22;4577;48.704;9.000;2023-10-08T18:07:46;19.50;69.10
9083;DHT22;4577;48.704;9.000;2023-10-08T18:12:42;19.40;70.30
9083;DHT22;4577;48.704;9.000;2023-10-08T18:15:08;19.30;70.20
9083;DHT22;4577;48.704;9.000;2023-10-08T18:17:47;19.40;71.20
9083;DHT22;4577;48.704;9.000;2023-10-08T18:20:15;19.20;71.00
9083;DHT22;4577;48.704;9.000;2023-10-08T18:22:54;19.30;69.10
9083;DHT22;4577;48.704;9.000;2023-10-08T18:25:21;19.40;70.10
9083;DHT22;4577;48.704;9.000;2023-10-08T18:27:47;19.20;69.70
9083;DHT22;4577;48.704;9.000;2023-10-08T18:30:14;19.70;68.50
9083;DHT22;4577;48.704;9.000;2023-10-08T18:32:40;19.10;68.20
9083;DHT22;4577;48.704;9.000;2023-10-08T18:35:06;19.00;70.40
9083;DHT22;4577;48.704;9.000;2023-10-08T18:37:35;19.30;71.50
9083;DHT22;4577;48.704;9.000;2023-10-08T18:40:03;19.30;71.70
9083;DHT22;4577;48.704;9.000;2023-10-08T18:42:38;19.10;70.60
9083;DHT22;4577;48.704;9.000;2023-10-08T18:45:04;19.00;70.40
9083;DHT22;4577;48.704;9.000;2023-10-08T18:47:33;18.90;70.80
9083;DHT22;4577;48.704;9.000;2023-10-08T18:49:59;18.90;72.00
9083;DHT22;4577;48.704;9.000;2023-10-08T18:52:24;18.90;70.30